N334SB KBIS-KGRB
Flight info
| Callsign | N334SB |
|---|---|
| Flight time | 1h 28m |
| Altitude | 45000 |
| Route | AXN |
| Aircraft | E55P/M-SBDFGHJ2RWY/LB2 |
Departure
| Time | 2026-04-11 14:07 |
|---|---|
| Airport | Bismarck Municipal Airport (KBIS) |
Arrival
| Time | 2026-04-11 15:36 |
|---|---|
| Airport | Austin Straubel International Airport (KGRB) |
| Time | Latitude | Longitude | Altitude | Speed | Heading |
|---|---|---|---|---|---|
| 2026-04-11 14:05 | 46.78378 | -100.76157 | 1652 ft | 0 kts | 137° |
| 2026-04-11 14:06 | 46.78378 | -100.76156 | 1652 ft | 0 kts | 137° |
| 2026-04-11 14:06 | 46.78376 | -100.76154 | 1652 ft | 0 kts | 136° |
| 2026-04-11 14:07 | 46.78239 | -100.75970 | 1651 ft | 70 kts | 137° |
| 2026-04-11 14:07 | 46.77693 | -100.75251 | 1791 ft | 127 kts | 137° |
| 2026-04-11 14:07 | 46.76900 | -100.74206 | 1930 ft | 189 kts | 137° |
| 2026-04-11 14:07 | 46.75822 | -100.72759 | 2525 ft | 225 kts | 138° |
| 2026-04-11 14:08 | 46.74775 | -100.71271 | 4147 ft | 215 kts | 137° |
| 2026-04-11 14:08 | 46.73784 | -100.69788 | 5529 ft | 209 kts | 137° |
| 2026-04-11 14:08 | 46.72769 | -100.68246 | 6435 ft | 220 kts | 137° |
| 2026-04-11 14:08 | 46.71706 | -100.66627 | 7277 ft | 232 kts | 137° |
| 2026-04-11 14:09 | 46.70575 | -100.64906 | 8172 ft | 241 kts | 137° |
| 2026-04-11 14:09 | 46.69414 | -100.63142 | 9065 ft | 249 kts | 137° |
| 2026-04-11 14:09 | 46.68197 | -100.61294 | 9933 ft | 257 kts | 137° |
| 2026-04-11 14:09 | 46.66958 | -100.59411 | 10834 ft | 263 kts | 137° |
| 2026-04-11 14:10 | 46.65909 | -100.57215 | 11745 ft | 275 kts | 114° |
| 2026-04-11 14:10 | 46.65432 | -100.54546 | 12640 ft | 281 kts | 104° |
| 2026-04-11 14:10 | 46.65078 | -100.51730 | 13497 ft | 288 kts | 102° |
| 2026-04-11 14:10 | 46.64759 | -100.48856 | 14326 ft | 295 kts | 101° |
| 2026-04-11 14:11 | 46.64441 | -100.45881 | 15187 ft | 300 kts | 101° |
| 2026-04-11 14:11 | 46.64121 | -100.42890 | 16045 ft | 304 kts | 101° |
| 2026-04-11 14:11 | 46.63797 | -100.39878 | 16904 ft | 308 kts | 101° |
| 2026-04-11 14:11 | 46.63462 | -100.36775 | 17739 ft | 313 kts | 101° |
| 2026-04-11 14:12 | 46.63127 | -100.33663 | 18521 ft | 318 kts | 101° |
| 2026-04-11 14:12 | 46.62782 | -100.30479 | 19299 ft | 322 kts | 101° |
| 2026-04-11 14:12 | 46.62431 | -100.27248 | 20072 ft | 326 kts | 101° |
| 2026-04-11 14:12 | 46.62083 | -100.24030 | 20820 ft | 330 kts | 101° |
| 2026-04-11 14:13 | 46.61719 | -100.20695 | 21546 ft | 334 kts | 101° |
| 2026-04-11 14:13 | 46.61353 | -100.17370 | 22221 ft | 339 kts | 101° |
| 2026-04-11 14:13 | 46.60981 | -100.13988 | 22900 ft | 343 kts | 101° |
| 2026-04-11 14:13 | 46.60607 | -100.10586 | 23569 ft | 347 kts | 101° |
| 2026-04-11 14:14 | 46.60225 | -100.07131 | 24221 ft | 351 kts | 101° |
| 2026-04-11 14:14 | 46.59835 | -100.03600 | 24877 ft | 355 kts | 101° |
| 2026-04-11 14:14 | 46.59442 | -100.00050 | 25514 ft | 359 kts | 101° |
| 2026-04-11 14:14 | 46.59042 | -99.96468 | 26155 ft | 363 kts | 101° |
| 2026-04-11 14:15 | 46.58641 | -99.92882 | 26772 ft | 366 kts | 101° |
| 2026-04-11 14:15 | 46.58230 | -99.89218 | 27375 ft | 371 kts | 101° |
| 2026-04-11 14:15 | 46.57809 | -99.85478 | 27945 ft | 375 kts | 101° |
| 2026-04-11 14:15 | 46.57388 | -99.81740 | 28517 ft | 380 kts | 101° |
| 2026-04-11 14:16 | 46.56960 | -99.77956 | 29103 ft | 383 kts | 101° |
| 2026-04-11 14:16 | 46.56531 | -99.74165 | 29658 ft | 387 kts | 101° |
| 2026-04-11 14:16 | 46.56088 | -99.70276 | 30190 ft | 391 kts | 101° |
| 2026-04-11 14:16 | 46.55643 | -99.66386 | 30812 ft | 392 kts | 101° |
| 2026-04-11 14:17 | 46.55206 | -99.62557 | 31544 ft | 389 kts | 102° |
| 2026-04-11 14:17 | 46.54763 | -99.58699 | 32274 ft | 387 kts | 102° |
| 2026-04-11 14:17 | 46.54324 | -99.54870 | 32983 ft | 385 kts | 102° |
| 2026-04-11 14:17 | 46.53885 | -99.51071 | 33653 ft | 383 kts | 102° |
| 2026-04-11 14:18 | 46.53439 | -99.47245 | 34318 ft | 382 kts | 102° |
| 2026-04-11 14:18 | 46.52999 | -99.43456 | 34904 ft | 381 kts | 102° |
| 2026-04-11 14:18 | 46.52556 | -99.39646 | 35556 ft | 382 kts | 102° |
| 2026-04-11 14:18 | 46.52110 | -99.35843 | 36183 ft | 382 kts | 102° |
| 2026-04-11 14:19 | 46.51666 | -99.32043 | 36784 ft | 382 kts | 103° |
| 2026-04-11 14:19 | 46.51215 | -99.28227 | 37376 ft | 381 kts | 103° |
| 2026-04-11 14:19 | 46.50771 | -99.24464 | 37966 ft | 381 kts | 103° |
| 2026-04-11 14:19 | 46.50322 | -99.20670 | 38507 ft | 382 kts | 103° |
| 2026-04-11 14:20 | 46.49869 | -99.16870 | 39045 ft | 382 kts | 103° |
| 2026-04-11 14:20 | 46.49419 | -99.13075 | 39554 ft | 383 kts | 103° |
| 2026-04-11 14:20 | 46.48967 | -99.09302 | 39946 ft | 386 kts | 103° |
| 2026-04-11 14:20 | 46.48501 | -99.05424 | 40371 ft | 389 kts | 103° |
| 2026-04-11 14:21 | 46.48039 | -99.01566 | 40841 ft | 389 kts | 103° |
| 2026-04-11 14:21 | 46.47575 | -98.97721 | 41227 ft | 388 kts | 103° |
| 2026-04-11 14:21 | 46.47111 | -98.93876 | 41433 ft | 394 kts | 103° |
| 2026-04-11 14:21 | 46.46631 | -98.89929 | 41560 ft | 401 kts | 102° |
| 2026-04-11 14:22 | 46.46155 | -98.85998 | 41833 ft | 403 kts | 102° |
| 2026-04-11 14:22 | 46.45663 | -98.81976 | 42197 ft | 402 kts | 102° |
| 2026-04-11 14:22 | 46.45181 | -98.78019 | 42533 ft | 400 kts | 102° |
| 2026-04-11 14:22 | 46.44693 | -98.74057 | 42820 ft | 401 kts | 102° |
| 2026-04-11 14:23 | 46.44208 | -98.70098 | 43094 ft | 401 kts | 102° |
| 2026-04-11 14:23 | 46.43712 | -98.66078 | 43351 ft | 402 kts | 102° |
| 2026-04-11 14:23 | 46.43217 | -98.62083 | 43622 ft | 402 kts | 102° |
| 2026-04-11 14:23 | 46.42719 | -98.58076 | 43868 ft | 402 kts | 102° |
| 2026-04-11 14:24 | 46.42227 | -98.54127 | 44090 ft | 403 kts | 102° |
| 2026-04-11 14:24 | 46.41724 | -98.50098 | 44321 ft | 404 kts | 102° |
| 2026-04-11 14:24 | 46.41222 | -98.46079 | 44567 ft | 404 kts | 101° |
| 2026-04-11 14:24 | 46.40724 | -98.42129 | 44799 ft | 404 kts | 101° |
| 2026-04-11 14:25 | 46.40221 | -98.38115 | 44993 ft | 405 kts | 101° |
| 2026-04-11 14:25 | 46.39710 | -98.34090 | 45035 ft | 412 kts | 102° |
| 2026-04-11 14:25 | 46.38667 | -98.25867 | 45039 ft | 418 kts | 102° |
| 2026-04-11 14:26 | 46.37610 | -98.17590 | 45047 ft | 424 kts | 102° |
| 2026-04-11 14:26 | 46.36523 | -98.09122 | 45044 ft | 429 kts | 102° |
| 2026-04-11 14:27 | 46.35427 | -98.00645 | 45050 ft | 434 kts | 102° |
| 2026-04-11 14:27 | 46.34305 | -97.92030 | 45063 ft | 439 kts | 102° |
| 2026-04-11 14:28 | 46.33169 | -97.83333 | 45077 ft | 444 kts | 102° |
| 2026-04-11 14:28 | 46.32012 | -97.74565 | 45087 ft | 449 kts | 102° |
| 2026-04-11 14:29 | 46.30836 | -97.65681 | 45091 ft | 453 kts | 102° |
| 2026-04-11 14:29 | 46.29640 | -97.56715 | 45099 ft | 458 kts | 101° |
| 2026-04-11 14:30 | 46.28427 | -97.47671 | 45105 ft | 462 kts | 101° |
| 2026-04-11 14:30 | 46.27199 | -97.38575 | 45101 ft | 466 kts | 102° |
| 2026-04-11 14:31 | 46.25957 | -97.29427 | 45094 ft | 469 kts | 102° |
| 2026-04-11 14:31 | 46.24687 | -97.20161 | 45097 ft | 472 kts | 102° |
| 2026-04-11 14:32 | 46.23408 | -97.10877 | 45111 ft | 475 kts | 102° |
| 2026-04-11 14:32 | 46.22113 | -97.01521 | 45111 ft | 478 kts | 102° |
| 2026-04-11 14:33 | 46.20808 | -96.92152 | 45119 ft | 480 kts | 102° |
| 2026-04-11 14:33 | 46.19484 | -96.82709 | 45130 ft | 481 kts | 102° |
| 2026-04-11 14:34 | 46.18156 | -96.73303 | 45141 ft | 483 kts | 102° |
| 2026-04-11 14:34 | 46.16811 | -96.63842 | 45151 ft | 485 kts | 102° |
| 2026-04-11 14:35 | 46.15451 | -96.54321 | 45155 ft | 486 kts | 102° |
| 2026-04-11 14:35 | 46.14075 | -96.44764 | 45159 ft | 488 kts | 102° |
| 2026-04-11 14:36 | 46.12698 | -96.35232 | 45158 ft | 490 kts | 102° |
| 2026-04-11 14:36 | 46.11313 | -96.25729 | 45161 ft | 491 kts | 103° |
| 2026-04-11 14:37 | 46.09904 | -96.16140 | 45164 ft | 491 kts | 102° |
| 2026-04-11 14:37 | 46.08483 | -96.06504 | 45162 ft | 493 kts | 102° |
| 2026-04-11 14:38 | 46.07065 | -95.96933 | 45167 ft | 493 kts | 103° |
| 2026-04-11 14:38 | 46.05619 | -95.87290 | 45167 ft | 494 kts | 103° |
| 2026-04-11 14:39 | 46.04175 | -95.77680 | 45171 ft | 494 kts | 102° |
| 2026-04-11 14:39 | 46.02718 | -95.68005 | 45177 ft | 495 kts | 102° |
| 2026-04-11 14:40 | 46.01253 | -95.58388 | 45183 ft | 496 kts | 102° |
| 2026-04-11 14:40 | 45.99771 | -95.48703 | 45198 ft | 497 kts | 102° |
| 2026-04-11 14:41 | 45.98276 | -95.38990 | 45206 ft | 498 kts | 102° |
| 2026-04-11 14:41 | 45.96785 | -95.29349 | 45202 ft | 498 kts | 103° |
| 2026-04-11 14:42 | 45.95157 | -95.19751 | 45200 ft | 498 kts | 103° |
| 2026-04-11 14:43 | 45.92739 | -95.05314 | 45200 ft | 499 kts | 104° |
| 2026-04-11 14:43 | 45.91063 | -94.95680 | 45214 ft | 498 kts | 104° |
| 2026-04-11 14:44 | 45.89393 | -94.86110 | 45217 ft | 498 kts | 104° |
| 2026-04-11 14:44 | 45.87696 | -94.76466 | 45227 ft | 498 kts | 104° |
| 2026-04-11 14:45 | 45.86009 | -94.66917 | 45237 ft | 498 kts | 104° |
| 2026-04-11 14:45 | 45.84303 | -94.57306 | 45251 ft | 498 kts | 104° |
| 2026-04-11 14:46 | 45.82597 | -94.47726 | 45249 ft | 497 kts | 103° |
| 2026-04-11 14:46 | 45.80890 | -94.38197 | 45262 ft | 496 kts | 104° |
| 2026-04-11 14:47 | 45.79167 | -94.28669 | 45256 ft | 495 kts | 104° |
| 2026-04-11 14:47 | 45.77455 | -94.19233 | 45260 ft | 495 kts | 104° |
| 2026-04-11 14:48 | 45.75729 | -94.09738 | 45265 ft | 493 kts | 104° |
| 2026-04-11 14:48 | 45.73996 | -94.00293 | 45260 ft | 493 kts | 104° |
| 2026-04-11 14:49 | 45.72257 | -93.90854 | 45264 ft | 492 kts | 104° |
| 2026-04-11 14:49 | 45.69730 | -93.76723 | 45279 ft | 491 kts | 104° |
| 2026-04-11 14:50 | 45.68038 | -93.67281 | 45284 ft | 492 kts | 104° |
| 2026-04-11 14:50 | 45.66345 | -93.57842 | 45290 ft | 493 kts | 104° |
| 2026-04-11 14:51 | 45.64634 | -93.48348 | 45293 ft | 494 kts | 103° |
| 2026-04-11 14:51 | 45.62917 | -93.38856 | 45298 ft | 494 kts | 103° |
| 2026-04-11 14:52 | 45.61188 | -93.29361 | 45298 ft | 494 kts | 104° |
| 2026-04-11 14:52 | 45.59448 | -93.19875 | 45304 ft | 494 kts | 104° |
| 2026-04-11 14:53 | 45.57708 | -93.10424 | 45310 ft | 495 kts | 104° |
| 2026-04-11 14:53 | 45.55972 | -93.01036 | 45314 ft | 494 kts | 104° |
| 2026-04-11 14:54 | 45.54218 | -92.91622 | 45304 ft | 494 kts | 104° |
| 2026-04-11 14:54 | 45.52452 | -92.82166 | 45314 ft | 493 kts | 104° |
| 2026-04-11 14:55 | 45.50677 | -92.72724 | 45307 ft | 493 kts | 104° |
| 2026-04-11 14:55 | 45.48918 | -92.63392 | 45310 ft | 492 kts | 104° |
| 2026-04-11 14:56 | 45.47137 | -92.54008 | 45297 ft | 492 kts | 104° |
| 2026-04-11 14:56 | 45.45360 | -92.44668 | 45305 ft | 491 kts | 104° |
| 2026-04-11 14:57 | 45.43559 | -92.35274 | 45293 ft | 491 kts | 104° |
| 2026-04-11 14:57 | 45.41766 | -92.25990 | 45291 ft | 491 kts | 104° |
| 2026-04-11 14:58 | 45.39961 | -92.16655 | 45298 ft | 490 kts | 105° |
| 2026-04-11 14:58 | 45.38158 | -92.07376 | 45316 ft | 488 kts | 105° |
| 2026-04-11 14:59 | 45.36354 | -91.98128 | 45332 ft | 488 kts | 105° |
| 2026-04-11 14:59 | 45.34549 | -91.88934 | 45249 ft | 490 kts | 105° |
| 2026-04-11 15:00 | 45.33623 | -91.84242 | 44744 ft | 489 kts | 105° |
| 2026-04-11 15:00 | 45.32717 | -91.79653 | 44266 ft | 487 kts | 105° |
| 2026-04-11 15:00 | 45.31802 | -91.75028 | 43766 ft | 485 kts | 105° |
| 2026-04-11 15:00 | 45.30904 | -91.70490 | 43262 ft | 483 kts | 105° |
| 2026-04-11 15:01 | 45.29996 | -91.65928 | 42752 ft | 481 kts | 105° |
| 2026-04-11 15:01 | 45.29087 | -91.61370 | 42237 ft | 480 kts | 105° |
| 2026-04-11 15:01 | 45.28453 | -91.58185 | 41872 ft | 479 kts | 105° |
| 2026-04-11 15:01 | 45.27554 | -91.53690 | 41356 ft | 478 kts | 105° |
| 2026-04-11 15:02 | 45.26649 | -91.49170 | 40831 ft | 477 kts | 106° |
| 2026-04-11 15:02 | 45.25750 | -91.44720 | 40231 ft | 475 kts | 106° |
| 2026-04-11 15:02 | 45.24851 | -91.40247 | 39642 ft | 471 kts | 106° |
| 2026-04-11 15:02 | 45.23956 | -91.35838 | 39087 ft | 467 kts | 105° |
| 2026-04-11 15:03 | 45.23067 | -91.31408 | 38308 ft | 462 kts | 107° |
| 2026-04-11 15:03 | 45.22192 | -91.27107 | 38035 ft | 456 kts | 107° |
| 2026-04-11 15:03 | 45.21323 | -91.22850 | 37536 ft | 451 kts | 107° |
| 2026-04-11 15:03 | 45.20457 | -91.18597 | 36688 ft | 446 kts | 107° |
| 2026-04-11 15:04 | 45.19611 | -91.14449 | 36420 ft | 437 kts | 107° |
| 2026-04-11 15:04 | 45.18773 | -91.10334 | 36048 ft | 432 kts | 106° |
| 2026-04-11 15:04 | 45.17949 | -91.06324 | 35648 ft | 429 kts | 106° |
| 2026-04-11 15:04 | 45.17123 | -91.02301 | 35224 ft | 426 kts | 106° |
| 2026-04-11 15:05 | 45.16292 | -90.98274 | 34789 ft | 423 kts | 106° |
| 2026-04-11 15:05 | 45.15474 | -90.94310 | 34330 ft | 421 kts | 106° |
| 2026-04-11 15:05 | 45.14668 | -90.90381 | 33865 ft | 419 kts | 106° |
| 2026-04-11 15:05 | 45.13847 | -90.86430 | 33408 ft | 416 kts | 106° |
| 2026-04-11 15:06 | 45.13040 | -90.82552 | 32954 ft | 414 kts | 106° |
| 2026-04-11 15:06 | 45.12235 | -90.78662 | 32509 ft | 412 kts | 106° |
| 2026-04-11 15:06 | 45.11434 | -90.74817 | 32061 ft | 410 kts | 106° |
| 2026-04-11 15:06 | 45.10637 | -90.70993 | 31618 ft | 408 kts | 105° |
| 2026-04-11 15:07 | 45.09835 | -90.67142 | 31166 ft | 406 kts | 105° |
| 2026-04-11 15:07 | 45.09042 | -90.63352 | 30720 ft | 404 kts | 105° |
| 2026-04-11 15:07 | 45.08252 | -90.59583 | 30288 ft | 402 kts | 104° |
| 2026-04-11 15:07 | 45.07454 | -90.55773 | 29855 ft | 399 kts | 105° |
| 2026-04-11 15:08 | 45.06665 | -90.52026 | 29428 ft | 397 kts | 105° |
| 2026-04-11 15:08 | 45.05887 | -90.48333 | 29001 ft | 395 kts | 104° |
| 2026-04-11 15:08 | 45.05112 | -90.44647 | 28579 ft | 393 kts | 105° |
| 2026-04-11 15:08 | 45.04326 | -90.40945 | 28158 ft | 390 kts | 105° |
| 2026-04-11 15:09 | 45.03549 | -90.37312 | 27739 ft | 388 kts | 105° |
| 2026-04-11 15:09 | 45.02784 | -90.33714 | 27316 ft | 386 kts | 106° |
| 2026-04-11 15:09 | 45.02016 | -90.30102 | 26894 ft | 384 kts | 106° |
| 2026-04-11 15:09 | 45.01259 | -90.26548 | 26472 ft | 382 kts | 106° |
| 2026-04-11 15:10 | 45.00491 | -90.22954 | 26050 ft | 379 kts | 106° |
| 2026-04-11 15:10 | 44.99733 | -90.19418 | 25636 ft | 377 kts | 106° |
| 2026-04-11 15:10 | 44.98985 | -90.15916 | 25220 ft | 375 kts | 106° |
| 2026-04-11 15:10 | 44.98233 | -90.12422 | 24816 ft | 373 kts | 106° |
| 2026-04-11 15:11 | 44.97482 | -90.08916 | 24415 ft | 371 kts | 106° |
| 2026-04-11 15:11 | 44.96735 | -90.05450 | 24017 ft | 368 kts | 107° |
| 2026-04-11 15:11 | 44.95998 | -90.02034 | 23623 ft | 367 kts | 106° |
| 2026-04-11 15:11 | 44.95259 | -89.98610 | 23226 ft | 365 kts | 106° |
| 2026-04-11 15:12 | 44.94521 | -89.95210 | 22836 ft | 362 kts | 106° |
| 2026-04-11 15:12 | 44.93785 | -89.91822 | 22442 ft | 360 kts | 106° |
| 2026-04-11 15:12 | 44.93056 | -89.88447 | 22053 ft | 358 kts | 106° |
| 2026-04-11 15:12 | 44.92337 | -89.85147 | 21671 ft | 355 kts | 106° |
| 2026-04-11 15:13 | 44.91610 | -89.81808 | 21285 ft | 353 kts | 106° |
| 2026-04-11 15:13 | 44.90888 | -89.78491 | 20711 ft | 357 kts | 106° |
| 2026-04-11 15:13 | 44.90161 | -89.75159 | 20237 ft | 356 kts | 107° |
| 2026-04-11 15:13 | 44.89451 | -89.71922 | 19807 ft | 353 kts | 106° |
| 2026-04-11 15:14 | 44.88732 | -89.68641 | 19384 ft | 350 kts | 106° |
| 2026-04-11 15:14 | 44.88010 | -89.65348 | 18973 ft | 347 kts | 107° |
| 2026-04-11 15:14 | 44.87311 | -89.62176 | 18585 ft | 343 kts | 106° |
| 2026-04-11 15:14 | 44.86602 | -89.58951 | 18198 ft | 339 kts | 106° |
| 2026-04-11 15:15 | 44.85912 | -89.55827 | 17827 ft | 336 kts | 106° |
| 2026-04-11 15:15 | 44.85226 | -89.52718 | 17453 ft | 332 kts | 106° |
| 2026-04-11 15:15 | 44.84546 | -89.49638 | 17088 ft | 329 kts | 107° |
| 2026-04-11 15:15 | 44.83866 | -89.46567 | 16725 ft | 326 kts | 107° |
| 2026-04-11 15:16 | 44.83194 | -89.43538 | 16367 ft | 323 kts | 107° |
| 2026-04-11 15:16 | 44.82527 | -89.40537 | 16015 ft | 320 kts | 107° |
| 2026-04-11 15:16 | 44.81867 | -89.37569 | 15669 ft | 318 kts | 107° |
| 2026-04-11 15:16 | 44.81209 | -89.34613 | 15321 ft | 315 kts | 107° |
| 2026-04-11 15:17 | 44.80561 | -89.31698 | 14966 ft | 312 kts | 108° |
| 2026-04-11 15:17 | 44.79913 | -89.28803 | 14620 ft | 309 kts | 108° |
| 2026-04-11 15:17 | 44.79276 | -89.25954 | 14284 ft | 307 kts | 108° |
| 2026-04-11 15:17 | 44.78636 | -89.23093 | 13941 ft | 304 kts | 108° |
| 2026-04-11 15:18 | 44.78004 | -89.20280 | 13608 ft | 301 kts | 107° |
| 2026-04-11 15:18 | 44.77378 | -89.17495 | 13280 ft | 299 kts | 107° |
| 2026-04-11 15:18 | 44.76759 | -89.14740 | 12954 ft | 297 kts | 107° |
| 2026-04-11 15:18 | 44.76134 | -89.11961 | 12626 ft | 294 kts | 107° |
| 2026-04-11 15:19 | 44.75524 | -89.09254 | 12303 ft | 292 kts | 107° |
| 2026-04-11 15:19 | 44.74914 | -89.06553 | 11985 ft | 290 kts | 107° |
| 2026-04-11 15:19 | 44.74308 | -89.03864 | 11669 ft | 287 kts | 107° |
| 2026-04-11 15:19 | 44.73703 | -89.01187 | 11351 ft | 285 kts | 107° |
| 2026-04-11 15:20 | 44.73109 | -88.98572 | 11043 ft | 283 kts | 107° |
| 2026-04-11 15:20 | 44.72513 | -88.95946 | 10741 ft | 281 kts | 107° |
| 2026-04-11 15:20 | 44.71920 | -88.93339 | 10436 ft | 279 kts | 107° |
| 2026-04-11 15:20 | 44.71337 | -88.90774 | 10138 ft | 277 kts | 107° |
| 2026-04-11 15:21 | 44.70751 | -88.88204 | 9841 ft | 275 kts | 107° |
| 2026-04-11 15:21 | 44.70176 | -88.85674 | 9546 ft | 273 kts | 107° |
| 2026-04-11 15:21 | 44.69595 | -88.83121 | 9249 ft | 271 kts | 107° |
| 2026-04-11 15:21 | 44.69024 | -88.80618 | 8958 ft | 269 kts | 107° |
| 2026-04-11 15:22 | 44.68463 | -88.78164 | 8665 ft | 267 kts | 107° |
| 2026-04-11 15:22 | 44.67896 | -88.75682 | 8372 ft | 264 kts | 107° |
| 2026-04-11 15:22 | 44.67335 | -88.73238 | 8084 ft | 262 kts | 107° |
| 2026-04-11 15:22 | 44.66782 | -88.70829 | 7799 ft | 260 kts | 108° |
| 2026-04-11 15:23 | 44.66228 | -88.68419 | 7516 ft | 258 kts | 107° |
| 2026-04-11 15:23 | 44.65680 | -88.66033 | 7232 ft | 256 kts | 108° |
| 2026-04-11 15:23 | 44.65138 | -88.63678 | 6950 ft | 254 kts | 108° |
| 2026-04-11 15:23 | 44.64600 | -88.61344 | 6674 ft | 252 kts | 108° |
| 2026-04-11 15:24 | 44.64062 | -88.59014 | 6396 ft | 250 kts | 108° |
| 2026-04-11 15:24 | 44.63527 | -88.56689 | 6151 ft | 246 kts | 107° |
| 2026-04-11 15:24 | 44.63450 | -88.54401 | 6106 ft | 233 kts | 76° |
| 2026-04-11 15:24 | 44.63839 | -88.52176 | 5810 ft | 235 kts | 76° |
| 2026-04-11 15:25 | 44.64214 | -88.49944 | 5524 ft | 236 kts | 76° |
| 2026-04-11 15:25 | 44.64587 | -88.47706 | 5238 ft | 236 kts | 76° |
| 2026-04-11 15:25 | 44.64958 | -88.45461 | 4953 ft | 236 kts | 76° |
| 2026-04-11 15:25 | 44.65325 | -88.43253 | 4677 ft | 235 kts | 76° |
| 2026-04-11 15:26 | 44.65696 | -88.41012 | 4402 ft | 234 kts | 76° |
| 2026-04-11 15:26 | 44.66065 | -88.38792 | 4126 ft | 233 kts | 77° |
| 2026-04-11 15:26 | 44.66424 | -88.36605 | 3856 ft | 231 kts | 77° |
| 2026-04-11 15:26 | 44.66787 | -88.34396 | 3584 ft | 230 kts | 78° |
| 2026-04-11 15:27 | 44.67143 | -88.32237 | 3315 ft | 228 kts | 78° |
| 2026-04-11 15:27 | 44.67500 | -88.30060 | 3048 ft | 226 kts | 78° |
| 2026-04-11 15:27 | 44.67852 | -88.27920 | 2786 ft | 225 kts | 78° |
| 2026-04-11 15:27 | 44.68198 | -88.25808 | 2548 ft | 222 kts | 78° |
| 2026-04-11 15:28 | 44.68332 | -88.23702 | 2499 ft | 210 kts | 92° |
| 2026-04-11 15:28 | 44.68324 | -88.21719 | 2487 ft | 199 kts | 91° |
| 2026-04-11 15:28 | 44.68326 | -88.19820 | 2488 ft | 189 kts | 91° |
| 2026-04-11 15:28 | 44.68328 | -88.18013 | 2488 ft | 181 kts | 91° |
| 2026-04-11 15:29 | 44.68329 | -88.16277 | 2489 ft | 174 kts | 91° |
| 2026-04-11 15:29 | 44.68191 | -88.14661 | 2484 ft | 165 kts | 117° |
| 2026-04-11 15:29 | 44.67411 | -88.13615 | 2496 ft | 152 kts | 162° |
| 2026-04-11 15:29 | 44.66396 | -88.13467 | 2504 ft | 144 kts | 181° |
| 2026-04-11 15:30 | 44.65443 | -88.13426 | 2535 ft | 130 kts | 181° |
| 2026-04-11 15:30 | 44.64567 | -88.13408 | 2491 ft | 121 kts | 181° |
| 2026-04-11 15:30 | 44.63765 | -88.13397 | 2479 ft | 111 kts | 182° |
| 2026-04-11 15:30 | 44.63024 | -88.13390 | 2481 ft | 101 kts | 182° |
| 2026-04-11 15:31 | 44.62348 | -88.13384 | 2482 ft | 95 kts | 183° |
| 2026-04-11 15:31 | 44.61683 | -88.13382 | 2498 ft | 95 kts | 183° |
| 2026-04-11 15:31 | 44.61010 | -88.13383 | 2505 ft | 98 kts | 183° |
| 2026-04-11 15:31 | 44.60318 | -88.13380 | 2508 ft | 101 kts | 183° |
| 2026-04-11 15:32 | 44.59594 | -88.13381 | 2510 ft | 105 kts | 183° |
| 2026-04-11 15:32 | 44.58859 | -88.13380 | 2507 ft | 107 kts | 182° |
| 2026-04-11 15:32 | 44.58098 | -88.13381 | 2440 ft | 110 kts | 182° |
| 2026-04-11 15:32 | 44.57335 | -88.13379 | 2308 ft | 110 kts | 182° |
| 2026-04-11 15:33 | 44.56575 | -88.13377 | 2165 ft | 109 kts | 182° |
| 2026-04-11 15:33 | 44.55819 | -88.13374 | 2020 ft | 107 kts | 182° |
| 2026-04-11 15:33 | 44.55088 | -88.13374 | 1879 ft | 105 kts | 182° |
| 2026-04-11 15:33 | 44.54369 | -88.13374 | 1737 ft | 103 kts | 182° |
| 2026-04-11 15:34 | 44.53653 | -88.13373 | 1595 ft | 101 kts | 182° |
| 2026-04-11 15:34 | 44.52954 | -88.13372 | 1459 ft | 100 kts | 182° |
| 2026-04-11 15:34 | 44.52264 | -88.13369 | 1324 ft | 98 kts | 182° |
| 2026-04-11 15:34 | 44.51589 | -88.13368 | 1194 ft | 97 kts | 182° |
| 2026-04-11 15:35 | 44.50914 | -88.13367 | 1064 ft | 96 kts | 182° |
| 2026-04-11 15:35 | 44.50250 | -88.13367 | 935 ft | 95 kts | 182° |
| 2026-04-11 15:35 | 44.49586 | -88.13366 | 805 ft | 94 kts | 182° |
| 2026-04-11 15:35 | 44.48941 | -88.13360 | 694 ft | 87 kts | 183° |
| 2026-04-11 15:36 | 44.48382 | -88.13364 | 685 ft | 73 kts | 181° |
| 2026-04-11 15:36 | 44.47945 | -88.13367 | 679 ft | 38 kts | 178° |
| 2026-04-11 15:36 | 44.47754 | -88.13339 | 675 ft | 19 kts | 131° |
| 2026-04-11 15:36 | 44.47784 | -88.13209 | 674 ft | 15 kts | 3° |
| 2026-04-11 15:37 | 44.47893 | -88.13209 | 675 ft | 15 kts | 0° |
| 2026-04-11 15:37 | 44.48004 | -88.13210 | 677 ft | 15 kts | 359° |
| 2026-04-11 15:37 | 44.48113 | -88.13210 | 680 ft | 15 kts | 360° |
| 2026-04-11 15:37 | 44.48223 | -88.13213 | 681 ft | 16 kts | 359° |
| 2026-04-11 15:38 | 44.48336 | -88.13212 | 683 ft | 16 kts | 1° |
| 2026-04-11 15:38 | 44.48449 | -88.13211 | 684 ft | 16 kts | 2° |
| 2026-04-11 15:38 | 44.48570 | -88.13211 | 686 ft | 17 kts | 359° |
| 2026-04-11 15:38 | 44.48656 | -88.13120 | 686 ft | 17 kts | 60° |
| 2026-04-11 15:39 | 44.48723 | -88.12957 | 684 ft | 20 kts | 60° |
| 2026-04-11 15:39 | 44.48798 | -88.12778 | 682 ft | 22 kts | 60° |
| 2026-04-11 15:39 | 44.48879 | -88.12580 | 681 ft | 23 kts | 59° |
| 2026-04-11 15:39 | 44.48966 | -88.12371 | 679 ft | 25 kts | 60° |
| 2026-04-11 15:40 | 44.49031 | -88.12210 | 678 ft | 15 kts | 56° |
| 2026-04-11 15:40 | 44.49126 | -88.12199 | 679 ft | 14 kts | 32° |
| 2026-04-11 15:40 | 44.49157 | -88.12109 | 679 ft | 15 kts | 68° |
| 2026-04-11 15:40 | 44.49205 | -88.11973 | 678 ft | 17 kts | 60° |
| 2026-04-11 15:41 | 44.49264 | -88.11831 | 679 ft | 8 kts | 58° |
| 2026-04-11 15:41 | 44.49276 | -88.11806 | 679 ft | 0 kts | 58° |